AWG6RQ LOWW-LROP
Flight info
| Callsign | AWG6RQ |
|---|---|
| Flight time | 1h 17m |
| Altitude | 37000 |
| Route | ADAMA DCT VEDER DCT ALAMU DCT EPARI DCT OSLEN DCT TEGRI DCT NEKUL DCT LAMIT DCT TOSVI |
| Aircraft | A320/M-SDE3FGHIRWY/LB1 |
Departure
| Time | 2026-04-25 11:11 |
|---|---|
| Airport | Vienna International Airport (LOWW) |
Arrival
| Time | 2026-04-25 12:28 |
|---|---|
| Airport | Bucharest Henri Coandă International Airport (LROP) |
| Time | Latitude | Longitude | Altitude | Speed | Heading |
|---|---|---|---|---|---|
| 2026-04-25 10:47 | 48.11940 | 16.55797 | 601 ft | 0 kts | 295° |
| 2026-04-25 10:57 | 48.11937 | 16.55806 | 601 ft | 2 kts | 296° |
| 2026-04-25 10:57 | 48.11928 | 16.55833 | 602 ft | 3 kts | 295° |
| 2026-04-25 10:58 | 48.11920 | 16.55861 | 602 ft | 3 kts | 290° |
| 2026-04-25 10:58 | 48.11914 | 16.55889 | 602 ft | 3 kts | 270° |
| 2026-04-25 10:58 | 48.11916 | 16.55910 | 601 ft | 2 kts | 217° |
| 2026-04-25 10:58 | 48.11919 | 16.55914 | 601 ft | 2 kts | 205° |
| 2026-04-25 10:59 | 48.11919 | 16.55915 | 601 ft | 0 kts | 205° |
| 2026-04-25 11:02 | 48.11919 | 16.55914 | 601 ft | 0 kts | 204° |
| 2026-04-25 11:02 | 48.11916 | 16.55913 | 601 ft | 1 kts | 203° |
| 2026-04-25 11:02 | 48.11904 | 16.55905 | 602 ft | 3 kts | 203° |
| 2026-04-25 11:03 | 48.11882 | 16.55890 | 604 ft | 4 kts | 205° |
| 2026-04-25 11:03 | 48.11856 | 16.55872 | 611 ft | 4 kts | 205° |
| 2026-04-25 11:03 | 48.11828 | 16.55852 | 617 ft | 5 kts | 205° |
| 2026-04-25 11:03 | 48.11794 | 16.55827 | 610 ft | 6 kts | 206° |
| 2026-04-25 11:04 | 48.11747 | 16.55793 | 617 ft | 9 kts | 206° |
| 2026-04-25 11:04 | 48.11685 | 16.55816 | 615 ft | 11 kts | 129° |
| 2026-04-25 11:04 | 48.11649 | 16.55929 | 620 ft | 13 kts | 115° |
| 2026-04-25 11:04 | 48.11618 | 16.56021 | 628 ft | 16 kts | 116° |
| 2026-04-25 11:05 | 48.11542 | 16.56253 | 625 ft | 20 kts | 116° |
| 2026-04-25 11:05 | 48.11475 | 16.56461 | 620 ft | 24 kts | 116° |
| 2026-04-25 11:05 | 48.11401 | 16.56687 | 618 ft | 25 kts | 116° |
| 2026-04-25 11:05 | 48.11326 | 16.56918 | 626 ft | 24 kts | 116° |
| 2026-04-25 11:06 | 48.11250 | 16.57151 | 625 ft | 26 kts | 116° |
| 2026-04-25 11:06 | 48.11197 | 16.57315 | 628 ft | 27 kts | 116° |
| 2026-04-25 11:06 | 48.11126 | 16.57516 | 626 ft | 10 kts | 137° |
| 2026-04-25 11:06 | 48.11070 | 16.57520 | 619 ft | 5 kts | 204° |
| 2026-04-25 11:07 | 48.11056 | 16.57510 | 619 ft | 0 kts | 205° |
| 2026-04-25 11:08 | 48.11055 | 16.57509 | 619 ft | 1 kts | 205° |
| 2026-04-25 11:08 | 48.11044 | 16.57502 | 620 ft | 3 kts | 205° |
| 2026-04-25 11:08 | 48.11014 | 16.57481 | 625 ft | 7 kts | 205° |
| 2026-04-25 11:08 | 48.10968 | 16.57429 | 631 ft | 6 kts | 238° |
| 2026-04-25 11:09 | 48.10967 | 16.57371 | 626 ft | 4 kts | 293° |
| 2026-04-25 11:09 | 48.10981 | 16.57331 | 628 ft | 5 kts | 296° |
| 2026-04-25 11:09 | 48.11000 | 16.57270 | 625 ft | 8 kts | 296° |
| 2026-04-25 11:09 | 48.11009 | 16.57243 | 623 ft | 0 kts | 296° |
| 2026-04-25 11:10 | 48.11014 | 16.57229 | 626 ft | 12 kts | 296° |
| 2026-04-25 11:10 | 48.11101 | 16.56962 | 632 ft | 74 kts | 296° |
| 2026-04-25 11:10 | 48.11594 | 16.55450 | 662 ft | 163 kts | 296° |
| 2026-04-25 11:10 | 48.12142 | 16.53739 | 1175 ft | 194 kts | 294° |
| 2026-04-25 11:11 | 48.12305 | 16.51629 | 1862 ft | 221 kts | 257° |
| 2026-04-25 11:11 | 48.11453 | 16.49591 | 2302 ft | 249 kts | 223° |
| 2026-04-25 11:11 | 48.09994 | 16.48139 | 3088 ft | 260 kts | 212° |
| 2026-04-25 11:11 | 48.08300 | 16.47026 | 4086 ft | 269 kts | 195° |
| 2026-04-25 11:12 | 48.06422 | 16.47171 | 5003 ft | 282 kts | 169° |
| 2026-04-25 11:12 | 48.04491 | 16.47849 | 5933 ft | 285 kts | 173° |
| 2026-04-25 11:12 | 48.02524 | 16.48328 | 6818 ft | 287 kts | 176° |
| 2026-04-25 11:12 | 48.00528 | 16.48700 | 7661 ft | 291 kts | 176° |
| 2026-04-25 11:13 | 47.98504 | 16.49234 | 8472 ft | 300 kts | 162° |
| 2026-04-25 11:13 | 47.96688 | 16.50819 | 9274 ft | 307 kts | 136° |
| 2026-04-25 11:13 | 47.95469 | 16.53423 | 10078 ft | 309 kts | 110° |
| 2026-04-25 11:13 | 47.95047 | 16.56625 | 10396 ft | 326 kts | 84° |
| 2026-04-25 11:14 | 47.95580 | 16.59949 | 10789 ft | 335 kts | 66° |
| 2026-04-25 11:14 | 47.96385 | 16.63256 | 11432 ft | 341 kts | 67° |
| 2026-04-25 11:14 | 47.97180 | 16.66624 | 12134 ft | 346 kts | 68° |
| 2026-04-25 11:14 | 47.97961 | 16.70008 | 12823 ft | 351 kts | 68° |
| 2026-04-25 11:15 | 47.98755 | 16.73480 | 13537 ft | 355 kts | 69° |
| 2026-04-25 11:15 | 47.99495 | 16.77021 | 14170 ft | 361 kts | 75° |
| 2026-04-25 11:15 | 47.99845 | 16.80762 | 14772 ft | 367 kts | 83° |
| 2026-04-25 11:15 | 48.00050 | 16.84586 | 15375 ft | 372 kts | 83° |
| 2026-04-25 11:16 | 48.00483 | 16.92376 | 16562 ft | 380 kts | 83° |
| 2026-04-25 11:16 | 48.00706 | 16.96326 | 17159 ft | 384 kts | 83° |
| 2026-04-25 11:16 | 48.00933 | 17.00320 | 17743 ft | 389 kts | 83° |
| 2026-04-25 11:17 | 48.01043 | 17.04375 | 18324 ft | 395 kts | 91° |
| 2026-04-25 11:17 | 48.00774 | 17.08482 | 18846 ft | 399 kts | 95° |
| 2026-04-25 11:17 | 48.00454 | 17.12623 | 19400 ft | 403 kts | 95° |
| 2026-04-25 11:17 | 48.00131 | 17.16796 | 19952 ft | 407 kts | 95° |
| 2026-04-25 11:18 | 47.99803 | 17.21014 | 20511 ft | 410 kts | 96° |
| 2026-04-25 11:18 | 47.99470 | 17.25260 | 21031 ft | 414 kts | 95° |
| 2026-04-25 11:18 | 47.99134 | 17.29551 | 21547 ft | 419 kts | 95° |
| 2026-04-25 11:18 | 47.98724 | 17.33883 | 22027 ft | 424 kts | 101° |
| 2026-04-25 11:19 | 47.97912 | 17.38136 | 22536 ft | 428 kts | 108° |
| 2026-04-25 11:19 | 47.96980 | 17.42369 | 23062 ft | 432 kts | 108° |
| 2026-04-25 11:19 | 47.96042 | 17.46637 | 23624 ft | 434 kts | 108° |
| 2026-04-25 11:19 | 47.95103 | 17.50928 | 24085 ft | 437 kts | 108° |
| 2026-04-25 11:20 | 47.94157 | 17.55247 | 24528 ft | 439 kts | 108° |
| 2026-04-25 11:20 | 47.93202 | 17.59592 | 24960 ft | 442 kts | 108° |
| 2026-04-25 11:20 | 47.92239 | 17.63961 | 25380 ft | 445 kts | 108° |
| 2026-04-25 11:20 | 47.91269 | 17.68350 | 25812 ft | 448 kts | 108° |
| 2026-04-25 11:21 | 47.90298 | 17.72719 | 26215 ft | 450 kts | 108° |
| 2026-04-25 11:21 | 47.89308 | 17.77169 | 26618 ft | 453 kts | 109° |
| 2026-04-25 11:21 | 47.88309 | 17.81654 | 27010 ft | 456 kts | 109° |
| 2026-04-25 11:21 | 47.87307 | 17.86147 | 27397 ft | 459 kts | 109° |
| 2026-04-25 11:22 | 47.86296 | 17.90669 | 27770 ft | 461 kts | 109° |
| 2026-04-25 11:22 | 47.85621 | 17.93670 | 28021 ft | 463 kts | 109° |
| 2026-04-25 11:22 | 47.84117 | 17.99724 | 28522 ft | 466 kts | 116° |
| 2026-04-25 11:22 | 47.82749 | 18.04114 | 28871 ft | 469 kts | 116° |
| 2026-04-25 11:23 | 47.81368 | 18.08534 | 29215 ft | 473 kts | 116° |
| 2026-04-25 11:23 | 47.79978 | 18.12977 | 29565 ft | 475 kts | 116° |
| 2026-04-25 11:23 | 47.78595 | 18.17393 | 29918 ft | 478 kts | 116° |
| 2026-04-25 11:23 | 47.77188 | 18.21885 | 30249 ft | 481 kts | 116° |
| 2026-04-25 11:24 | 47.75766 | 18.26412 | 30557 ft | 483 kts | 116° |
| 2026-04-25 11:24 | 47.74450 | 18.31024 | 30840 ft | 486 kts | 109° |
| 2026-04-25 11:24 | 47.73558 | 18.35886 | 31156 ft | 489 kts | 100° |
| 2026-04-25 11:24 | 47.73099 | 18.40892 | 31510 ft | 489 kts | 95° |
| 2026-04-25 11:25 | 47.72729 | 18.45904 | 31951 ft | 488 kts | 95° |
| 2026-04-25 11:25 | 47.72351 | 18.50910 | 32377 ft | 487 kts | 95° |
| 2026-04-25 11:25 | 47.71966 | 18.55906 | 32807 ft | 487 kts | 95° |
| 2026-04-25 11:25 | 47.71578 | 18.60873 | 33238 ft | 486 kts | 95° |
| 2026-04-25 11:26 | 47.71186 | 18.65841 | 33667 ft | 486 kts | 95° |
| 2026-04-25 11:26 | 47.70795 | 18.70817 | 34090 ft | 485 kts | 95° |
| 2026-04-25 11:26 | 47.70406 | 18.75786 | 34446 ft | 485 kts | 95° |
| 2026-04-25 11:26 | 47.70015 | 18.80750 | 34810 ft | 484 kts | 95° |
| 2026-04-25 11:27 | 47.69618 | 18.85704 | 35156 ft | 483 kts | 95° |
| 2026-04-25 11:27 | 47.69050 | 18.90621 | 35515 ft | 483 kts | 104° |
| 2026-04-25 11:27 | 47.67987 | 18.95362 | 35847 ft | 483 kts | 114° |
| 2026-04-25 11:27 | 47.67019 | 18.98330 | 36062 ft | 482 kts | 120° |
| 2026-04-25 11:28 | 47.64510 | 19.03730 | 36471 ft | 479 kts | 133° |
| 2026-04-25 11:28 | 47.62210 | 19.07298 | 36763 ft | 477 kts | 137° |
| 2026-04-25 11:28 | 47.59858 | 19.10768 | 36979 ft | 477 kts | 137° |
| 2026-04-25 11:28 | 47.57503 | 19.14241 | 37028 ft | 480 kts | 137° |
| 2026-04-25 11:29 | 47.52699 | 19.21307 | 37030 ft | 492 kts | 137° |
| 2026-04-25 11:29 | 47.47815 | 19.28480 | 37030 ft | 496 kts | 137° |
| 2026-04-25 11:30 | 47.42904 | 19.35669 | 37034 ft | 497 kts | 137° |
| 2026-04-25 11:30 | 47.37991 | 19.42832 | 37027 ft | 497 kts | 137° |
| 2026-04-25 11:31 | 47.33077 | 19.49977 | 37021 ft | 497 kts | 137° |
| 2026-04-25 11:31 | 47.28142 | 19.57143 | 37014 ft | 498 kts | 137° |
| 2026-04-25 11:32 | 47.23230 | 19.64241 | 37002 ft | 498 kts | 137° |
| 2026-04-25 11:32 | 47.18247 | 19.71434 | 37010 ft | 499 kts | 137° |
| 2026-04-25 11:33 | 47.13318 | 19.78522 | 37015 ft | 499 kts | 137° |
| 2026-04-25 11:33 | 47.08342 | 19.85647 | 37030 ft | 499 kts | 137° |
| 2026-04-25 11:34 | 47.03366 | 19.92774 | 37036 ft | 499 kts | 137° |
| 2026-04-25 11:34 | 46.98393 | 19.99872 | 37032 ft | 499 kts | 137° |
| 2026-04-25 11:35 | 46.93410 | 20.06962 | 37032 ft | 500 kts | 137° |
| 2026-04-25 11:35 | 46.88417 | 20.14046 | 37024 ft | 500 kts | 137° |
| 2026-04-25 11:36 | 46.83449 | 20.21059 | 36995 ft | 500 kts | 137° |
| 2026-04-25 11:36 | 46.78446 | 20.28103 | 37024 ft | 499 kts | 137° |
| 2026-04-25 11:37 | 46.73446 | 20.35140 | 37034 ft | 499 kts | 137° |
| 2026-04-25 11:37 | 46.68605 | 20.42383 | 37022 ft | 500 kts | 133° |
| 2026-04-25 11:38 | 46.64021 | 20.49995 | 37029 ft | 500 kts | 132° |
| 2026-04-25 11:38 | 46.59460 | 20.57632 | 37020 ft | 500 kts | 133° |
| 2026-04-25 11:39 | 46.54813 | 20.65146 | 37032 ft | 499 kts | 133° |
| 2026-04-25 11:39 | 46.50123 | 20.72582 | 37026 ft | 499 kts | 134° |
| 2026-04-25 11:40 | 46.45447 | 20.80008 | 37027 ft | 498 kts | 133° |
| 2026-04-25 11:40 | 46.40780 | 20.87453 | 37032 ft | 498 kts | 133° |
| 2026-04-25 11:41 | 46.36119 | 20.94879 | 37037 ft | 498 kts | 133° |
| 2026-04-25 11:41 | 46.31443 | 21.02290 | 37027 ft | 498 kts | 133° |
| 2026-04-25 11:42 | 46.26772 | 21.09700 | 37027 ft | 498 kts | 131° |
| 2026-04-25 11:42 | 46.22677 | 21.17785 | 36987 ft | 499 kts | 125° |
| 2026-04-25 11:43 | 46.18670 | 21.25952 | 37012 ft | 498 kts | 125° |
| 2026-04-25 11:43 | 46.14652 | 21.34096 | 37019 ft | 498 kts | 125° |
| 2026-04-25 11:44 | 46.10653 | 21.42170 | 37019 ft | 498 kts | 126° |
| 2026-04-25 11:44 | 46.06622 | 21.50279 | 37026 ft | 498 kts | 126° |
| 2026-04-25 11:45 | 46.02583 | 21.58385 | 37037 ft | 497 kts | 125° |
| 2026-04-25 11:45 | 45.98551 | 21.66478 | 37035 ft | 497 kts | 125° |
| 2026-04-25 11:46 | 45.94508 | 21.74553 | 37041 ft | 497 kts | 126° |
| 2026-04-25 11:46 | 45.90456 | 21.82603 | 37050 ft | 497 kts | 125° |
| 2026-04-25 11:47 | 45.86400 | 21.90639 | 37032 ft | 497 kts | 125° |
| 2026-04-25 11:47 | 45.82345 | 21.98673 | 37038 ft | 496 kts | 125° |
| 2026-04-25 11:48 | 45.78317 | 22.06633 | 37047 ft | 496 kts | 125° |
| 2026-04-25 11:48 | 45.74262 | 22.14622 | 37053 ft | 496 kts | 125° |
| 2026-04-25 11:49 | 45.70205 | 22.22612 | 37046 ft | 496 kts | 125° |
| 2026-04-25 11:49 | 45.66132 | 22.30578 | 37046 ft | 496 kts | 125° |
| 2026-04-25 11:50 | 45.62715 | 22.37233 | 37048 ft | 496 kts | 126° |
| 2026-04-25 11:50 | 45.58638 | 22.45171 | 37060 ft | 495 kts | 125° |
| 2026-04-25 11:51 | 45.54557 | 22.53105 | 37056 ft | 495 kts | 125° |
| 2026-04-25 11:51 | 45.50478 | 22.61010 | 37046 ft | 494 kts | 125° |
| 2026-04-25 11:52 | 45.46423 | 22.68845 | 37048 ft | 494 kts | 125° |
| 2026-04-25 11:52 | 45.42337 | 22.76718 | 37049 ft | 494 kts | 125° |
| 2026-04-25 11:53 | 45.38239 | 22.84573 | 37048 ft | 493 kts | 125° |
| 2026-04-25 11:53 | 45.34145 | 22.92401 | 37037 ft | 493 kts | 126° |
| 2026-04-25 11:54 | 45.30051 | 23.00205 | 37045 ft | 493 kts | 125° |
| 2026-04-25 11:55 | 45.23894 | 23.11948 | 37031 ft | 494 kts | 125° |
| 2026-04-25 11:55 | 45.19778 | 23.19760 | 37029 ft | 495 kts | 125° |
| 2026-04-25 11:56 | 45.15636 | 23.27577 | 37021 ft | 494 kts | 125° |
| 2026-04-25 11:56 | 45.11611 | 23.35441 | 37037 ft | 492 kts | 118° |
| 2026-04-25 11:56 | 45.10102 | 23.39748 | 36922 ft | 484 kts | 108° |
| 2026-04-25 11:57 | 45.09100 | 23.44201 | 36413 ft | 467 kts | 102° |
| 2026-04-25 11:57 | 45.08273 | 23.48606 | 35696 ft | 459 kts | 101° |
| 2026-04-25 11:57 | 45.07474 | 23.52895 | 34975 ft | 453 kts | 101° |
| 2026-04-25 11:57 | 45.06676 | 23.57181 | 34241 ft | 447 kts | 101° |
| 2026-04-25 11:58 | 45.05883 | 23.61411 | 33450 ft | 442 kts | 101° |
| 2026-04-25 11:58 | 45.05097 | 23.65586 | 32653 ft | 436 kts | 101° |
| 2026-04-25 11:58 | 45.04318 | 23.69697 | 31904 ft | 430 kts | 101° |
| 2026-04-25 11:58 | 45.03546 | 23.73760 | 31177 ft | 425 kts | 102° |
| 2026-04-25 11:59 | 45.02781 | 23.77766 | 30474 ft | 420 kts | 102° |
| 2026-04-25 11:59 | 45.02021 | 23.81725 | 29743 ft | 415 kts | 102° |
| 2026-04-25 11:59 | 45.01265 | 23.85648 | 28985 ft | 410 kts | 102° |
| 2026-04-25 12:00 | 44.99781 | 23.93341 | 27550 ft | 401 kts | 102° |
| 2026-04-25 12:00 | 44.99053 | 23.97117 | 26853 ft | 396 kts | 102° |
| 2026-04-25 12:00 | 44.97621 | 24.04550 | 25480 ft | 388 kts | 102° |
| 2026-04-25 12:01 | 44.96914 | 24.08207 | 24808 ft | 384 kts | 103° |
| 2026-04-25 12:01 | 44.96211 | 24.11823 | 24144 ft | 379 kts | 103° |
| 2026-04-25 12:01 | 44.95510 | 24.15414 | 23707 ft | 379 kts | 103° |
| 2026-04-25 12:01 | 44.94813 | 24.18988 | 23430 ft | 377 kts | 103° |
| 2026-04-25 12:02 | 44.93422 | 24.26101 | 22885 ft | 375 kts | 103° |
| 2026-04-25 12:02 | 44.92730 | 24.29638 | 22617 ft | 373 kts | 103° |
| 2026-04-25 12:02 | 44.92038 | 24.33163 | 22351 ft | 372 kts | 103° |
| 2026-04-25 12:03 | 44.91350 | 24.36669 | 22089 ft | 370 kts | 103° |
| 2026-04-25 12:03 | 44.90664 | 24.40162 | 21824 ft | 369 kts | 103° |
| 2026-04-25 12:03 | 44.89977 | 24.43640 | 21568 ft | 367 kts | 104° |
| 2026-04-25 12:03 | 44.89299 | 24.47060 | 21313 ft | 366 kts | 104° |
| 2026-04-25 12:04 | 44.88615 | 24.50510 | 21059 ft | 364 kts | 104° |
| 2026-04-25 12:04 | 44.87934 | 24.53945 | 20807 ft | 363 kts | 104° |
| 2026-04-25 12:04 | 44.87256 | 24.57365 | 20557 ft | 362 kts | 104° |
| 2026-04-25 12:04 | 44.86580 | 24.60770 | 20310 ft | 360 kts | 104° |
| 2026-04-25 12:05 | 44.85906 | 24.64164 | 20058 ft | 359 kts | 104° |
| 2026-04-25 12:05 | 44.85231 | 24.67547 | 19817 ft | 357 kts | 104° |
| 2026-04-25 12:05 | 44.84558 | 24.70906 | 19581 ft | 355 kts | 104° |
| 2026-04-25 12:05 | 44.83885 | 24.74239 | 19267 ft | 352 kts | 104° |
| 2026-04-25 12:06 | 44.83216 | 24.77556 | 18857 ft | 352 kts | 104° |
| 2026-04-25 12:06 | 44.82547 | 24.80884 | 18445 ft | 352 kts | 104° |
| 2026-04-25 12:06 | 44.81881 | 24.84210 | 18006 ft | 352 kts | 104° |
| 2026-04-25 12:06 | 44.81216 | 24.87519 | 17581 ft | 351 kts | 104° |
| 2026-04-25 12:07 | 44.80552 | 24.90815 | 17170 ft | 349 kts | 104° |
| 2026-04-25 12:07 | 44.79889 | 24.94089 | 16765 ft | 347 kts | 105° |
| 2026-04-25 12:07 | 44.79233 | 24.97313 | 16364 ft | 346 kts | 105° |
| 2026-04-25 12:07 | 44.78570 | 25.00559 | 15959 ft | 345 kts | 105° |
| 2026-04-25 12:08 | 44.77908 | 25.03799 | 15548 ft | 344 kts | 105° |
| 2026-04-25 12:08 | 44.77249 | 25.07026 | 15153 ft | 343 kts | 105° |
| 2026-04-25 12:08 | 44.76592 | 25.10250 | 14753 ft | 342 kts | 105° |
| 2026-04-25 12:08 | 44.75936 | 25.13463 | 14351 ft | 342 kts | 105° |
| 2026-04-25 12:09 | 44.75285 | 25.16680 | 13951 ft | 341 kts | 104° |
| 2026-04-25 12:09 | 44.74729 | 25.19876 | 13736 ft | 333 kts | 102° |
| 2026-04-25 12:09 | 44.74248 | 25.23041 | 13479 ft | 327 kts | 101° |
| 2026-04-25 12:09 | 44.73801 | 25.26160 | 13266 ft | 325 kts | 100° |
| 2026-04-25 12:10 | 44.73358 | 25.29268 | 13049 ft | 323 kts | 100° |
| 2026-04-25 12:10 | 44.72909 | 25.32361 | 12819 ft | 322 kts | 101° |
| 2026-04-25 12:10 | 44.72452 | 25.35432 | 12603 ft | 320 kts | 101° |
| 2026-04-25 12:10 | 44.71988 | 25.38485 | 12377 ft | 319 kts | 101° |
| 2026-04-25 12:11 | 44.71539 | 25.41426 | 12165 ft | 318 kts | 102° |
| 2026-04-25 12:11 | 44.71202 | 25.44582 | 11935 ft | 316 kts | 91° |
| 2026-04-25 12:11 | 44.71333 | 25.47653 | 11711 ft | 314 kts | 82° |
| 2026-04-25 12:11 | 44.71586 | 25.50699 | 11487 ft | 313 kts | 82° |
| 2026-04-25 12:12 | 44.71838 | 25.53734 | 11258 ft | 312 kts | 82° |
| 2026-04-25 12:12 | 44.72004 | 25.55747 | 11115 ft | 311 kts | 82° |
| 2026-04-25 12:12 | 44.72327 | 25.59743 | 10821 ft | 309 kts | 82° |
| 2026-04-25 12:12 | 44.72566 | 25.62745 | 10601 ft | 308 kts | 83° |
| 2026-04-25 12:13 | 44.72800 | 25.65740 | 10381 ft | 307 kts | 83° |
| 2026-04-25 12:13 | 44.73031 | 25.68718 | 10176 ft | 306 kts | 83° |
| 2026-04-25 12:13 | 44.73262 | 25.71683 | 9955 ft | 303 kts | 83° |
| 2026-04-25 12:13 | 44.73392 | 25.74599 | 9813 ft | 295 kts | 96° |
| 2026-04-25 12:14 | 44.72751 | 25.77268 | 9670 ft | 284 kts | 125° |
| 2026-04-25 12:14 | 44.71369 | 25.79149 | 9479 ft | 274 kts | 153° |
| 2026-04-25 12:14 | 44.69590 | 25.79946 | 9263 ft | 267 kts | 176° |
| 2026-04-25 12:14 | 44.67741 | 25.80216 | 9042 ft | 265 kts | 178° |
| 2026-04-25 12:15 | 44.65946 | 25.79956 | 8834 ft | 257 kts | 204° |
| 2026-04-25 12:15 | 44.64477 | 25.78621 | 8570 ft | 250 kts | 230° |
| 2026-04-25 12:15 | 44.63628 | 25.76533 | 8231 ft | 247 kts | 256° |
| 2026-04-25 12:15 | 44.63384 | 25.74160 | 7918 ft | 247 kts | 265° |
| 2026-04-25 12:16 | 44.63201 | 25.71763 | 7620 ft | 246 kts | 265° |
| 2026-04-25 12:16 | 44.63018 | 25.69380 | 7319 ft | 246 kts | 264° |
| 2026-04-25 12:16 | 44.62835 | 25.67025 | 7040 ft | 245 kts | 264° |
| 2026-04-25 12:16 | 44.62647 | 25.64652 | 6760 ft | 244 kts | 264° |
| 2026-04-25 12:17 | 44.62459 | 25.62286 | 6473 ft | 244 kts | 264° |
| 2026-04-25 12:17 | 44.62269 | 25.59923 | 6164 ft | 243 kts | 264° |
| 2026-04-25 12:17 | 44.62081 | 25.57569 | 5866 ft | 243 kts | 265° |
| 2026-04-25 12:17 | 44.61893 | 25.55215 | 5564 ft | 242 kts | 265° |
| 2026-04-25 12:18 | 44.61703 | 25.52869 | 5261 ft | 242 kts | 265° |
| 2026-04-25 12:18 | 44.61510 | 25.50528 | 4980 ft | 241 kts | 265° |
| 2026-04-25 12:18 | 44.61037 | 25.48298 | 4765 ft | 239 kts | 239° |
| 2026-04-25 12:18 | 44.59815 | 25.46774 | 4594 ft | 238 kts | 205° |
| 2026-04-25 12:19 | 44.57133 | 25.46834 | 4099 ft | 239 kts | 166° |
| 2026-04-25 12:19 | 44.54953 | 25.47326 | 3699 ft | 236 kts | 174° |
| 2026-04-25 12:19 | 44.53392 | 25.47996 | 3417 ft | 235 kts | 147° |
| 2026-04-25 12:20 | 44.52325 | 25.49671 | 3119 ft | 232 kts | 113° |
| 2026-04-25 12:20 | 44.52073 | 25.51862 | 2806 ft | 230 kts | 84° |
| 2026-04-25 12:20 | 44.52250 | 25.54064 | 2507 ft | 230 kts | 83° |
| 2026-04-25 12:20 | 44.52436 | 25.56288 | 2456 ft | 231 kts | 83° |
| 2026-04-25 12:21 | 44.52621 | 25.58630 | 2463 ft | 255 kts | 83° |
| 2026-04-25 12:21 | 44.52817 | 25.61141 | 2466 ft | 262 kts | 83° |
| 2026-04-25 12:21 | 44.53021 | 25.63680 | 2464 ft | 263 kts | 83° |
| 2026-04-25 12:21 | 44.53225 | 25.66228 | 2459 ft | 261 kts | 83° |
| 2026-04-25 12:22 | 44.53427 | 25.68751 | 2461 ft | 260 kts | 83° |
| 2026-04-25 12:22 | 44.53628 | 25.71278 | 2463 ft | 260 kts | 83° |
| 2026-04-25 12:22 | 44.53828 | 25.73799 | 2465 ft | 260 kts | 83° |
| 2026-04-25 12:22 | 44.54023 | 25.76251 | 2464 ft | 246 kts | 83° |
| 2026-04-25 12:23 | 44.54205 | 25.78566 | 2466 ft | 231 kts | 83° |
| 2026-04-25 12:23 | 44.54376 | 25.80733 | 2466 ft | 216 kts | 83° |
| 2026-04-25 12:23 | 44.54539 | 25.82797 | 2469 ft | 211 kts | 83° |
| 2026-04-25 12:23 | 44.54699 | 25.84842 | 2473 ft | 211 kts | 83° |
| 2026-04-25 12:24 | 44.54856 | 25.86841 | 2472 ft | 201 kts | 83° |
| 2026-04-25 12:24 | 44.55005 | 25.88760 | 2467 ft | 196 kts | 83° |
| 2026-04-25 12:24 | 44.55152 | 25.90641 | 2456 ft | 188 kts | 83° |
| 2026-04-25 12:24 | 44.55288 | 25.92395 | 2272 ft | 172 kts | 83° |
| 2026-04-25 12:25 | 44.55409 | 25.93951 | 2083 ft | 152 kts | 83° |
| 2026-04-25 12:25 | 44.55520 | 25.95383 | 1908 ft | 145 kts | 84° |
| 2026-04-25 12:25 | 44.55628 | 25.96773 | 1741 ft | 142 kts | 84° |
| 2026-04-25 12:25 | 44.55734 | 25.98146 | 1565 ft | 141 kts | 84° |
| 2026-04-25 12:26 | 44.55839 | 25.99510 | 1400 ft | 141 kts | 84° |
| 2026-04-25 12:26 | 44.55944 | 26.00870 | 1234 ft | 140 kts | 84° |
| 2026-04-25 12:26 | 44.56047 | 26.02221 | 1061 ft | 139 kts | 83° |
| 2026-04-25 12:26 | 44.56150 | 26.03561 | 883 ft | 138 kts | 83° |
| 2026-04-25 12:27 | 44.56251 | 26.04816 | 729 ft | 137 kts | 82° |
| 2026-04-25 12:27 | 44.56351 | 26.06176 | 561 ft | 136 kts | 83° |
| 2026-04-25 12:27 | 44.56450 | 26.07490 | 354 ft | 135 kts | 82° |
| 2026-04-25 12:27 | 44.56539 | 26.08701 | 313 ft | 104 kts | 88° |
| 2026-04-25 12:28 | 44.56601 | 26.09466 | 314 ft | 54 kts | 85° |
| 2026-04-25 12:28 | 44.56621 | 26.09753 | 315 ft | 5 kts | 84° |
| 2026-04-25 12:28 | 44.56623 | 26.09780 | 315 ft | 5 kts | 84° |
| 2026-04-25 12:28 | 44.56630 | 26.09857 | 316 ft | 11 kts | 84° |
| 2026-04-25 12:29 | 44.56640 | 26.09984 | 318 ft | 15 kts | 83° |
| 2026-04-25 12:29 | 44.56654 | 26.10160 | 318 ft | 21 kts | 83° |
| 2026-04-25 12:29 | 44.56671 | 26.10389 | 318 ft | 26 kts | 85° |
| 2026-04-25 12:29 | 44.56691 | 26.10646 | 318 ft | 27 kts | 84° |
| 2026-04-25 12:30 | 44.56744 | 26.10765 | 318 ft | 10 kts | 359° |
| 2026-04-25 12:30 | 44.56811 | 26.10754 | 318 ft | 0 kts | 354° |
| 2026-04-25 12:31 | 44.56820 | 26.10752 | 318 ft | 3 kts | 354° |
| 2026-04-25 12:31 | 44.56856 | 26.10747 | 318 ft | 8 kts | 354° |
| 2026-04-25 12:31 | 44.56926 | 26.10737 | 318 ft | 12 kts | 353° |
| 2026-04-25 12:31 | 44.57009 | 26.10687 | 318 ft | 14 kts | 314° |
| 2026-04-25 12:32 | 44.57048 | 26.10604 | 317 ft | 16 kts | 296° |
| 2026-04-25 12:32 | 44.57062 | 26.10441 | 316 ft | 18 kts | 263° |
| 2026-04-25 12:32 | 44.57047 | 26.10250 | 316 ft | 21 kts | 263° |
| 2026-04-25 12:32 | 44.57031 | 26.10036 | 316 ft | 24 kts | 264° |
| 2026-04-25 12:33 | 44.57003 | 26.09879 | 316 ft | 7 kts | 197° |
| 2026-04-25 12:33 | 44.56964 | 26.09915 | 316 ft | 7 kts | 166° |
| 2026-04-25 12:33 | 44.56937 | 26.09920 | 316 ft | 0 kts | 173° |